<?xml version="1.0" encoding="utf-8"?>
<gpx xmlns:xsi="http://www.w3.org/2001/XMLSchema-instance" xmlns:xsd="http://www.w3.org/2001/XMLSchema" version="1.1" creator="Shapelink.com" xmlns="http://www.topografix.com/GPX/1/1" xmlns:gpxtpx="http://www.garmin.com/xmlschemas/TrackPointExtension/v1">
  <metadata>
    <name>Övrigt 2.92 km, 2019-05-05</name>
    <desc></desc>
    <author><name>Marian Moron</name></author> 
    <time>2019-05-05T19:55:06Z</time>
  </metadata>
  <trk>
    <name>Övrigt 2.92 km, 2019-05-05</name>
    <trkseg>
      <trkpt lat="51.229753537362" lon="4.457620483776">
        <ele>6</ele>
        <time>2019-05-05T19:55:06Z</time>
      </trkpt>
      <trkpt lat="51.22980483459" lon="4.45782801962">
        <ele>3.8</ele>
        <time>2019-05-05T19:55:20Z</time>
      </trkpt>
      <trkpt lat="51.229848504289" lon="4.457979145277">
        <ele>5</ele>
        <time>2019-05-05T19:55:34Z</time>
      </trkpt>
      <trkpt lat="51.229975238617" lon="4.458268823741">
        <ele>4.4</ele>
        <time>2019-05-05T19:56:06Z</time>
      </trkpt>
      <trkpt lat="51.23009401014" lon="4.458756231226">
        <ele>7</ele>
        <time>2019-05-05T19:57:05Z</time>
      </trkpt>
      <trkpt lat="51.230536742098" lon="4.458634442219">
        <ele>8.2</ele>
        <time>2019-05-05T19:57:33Z</time>
      </trkpt>
      <trkpt lat="51.230582423453" lon="4.458622791378">
        <ele>8</ele>
        <time>2019-05-05T19:57:38Z</time>
      </trkpt>
      <trkpt lat="51.230839496326" lon="4.458531847763">
        <ele>4.6</ele>
        <time>2019-05-05T19:58:07Z</time>
      </trkpt>
      <trkpt lat="51.231019958633" lon="4.458474515567">
        <ele>0.2</ele>
        <time>2019-05-05T19:58:31Z</time>
      </trkpt>
      <trkpt lat="51.231085253634" lon="4.45846252945">
        <ele>0</ele>
        <time>2019-05-05T19:58:45Z</time>
      </trkpt>
      <trkpt lat="51.231427402792" lon="4.458349457619">
        <ele>0</ele>
        <time>2019-05-05T19:59:15Z</time>
      </trkpt>
      <trkpt lat="51.231477694192" lon="4.458366053781">
        <ele>0</ele>
        <time>2019-05-05T19:59:19Z</time>
      </trkpt>
      <trkpt lat="51.231574588956" lon="4.458299836771">
        <ele>0</ele>
        <time>2019-05-05T19:59:28Z</time>
      </trkpt>
      <trkpt lat="51.231582048847" lon="4.458339064063">
        <ele>0</ele>
        <time>2019-05-05T19:59:46Z</time>
      </trkpt>
      <trkpt lat="51.231611720773" lon="4.458518855818">
        <ele>0.4</ele>
        <time>2019-05-05T20:00:09Z</time>
      </trkpt>
      <trkpt lat="51.231659581422" lon="4.458980195594">
        <ele>2</ele>
        <time>2019-05-05T20:00:37Z</time>
      </trkpt>
      <trkpt lat="51.231682631647" lon="4.459124531912">
        <ele>1.6</ele>
        <time>2019-05-05T20:00:57Z</time>
      </trkpt>
      <trkpt lat="51.231733761237" lon="4.459381940061">
        <ele>0.8</ele>
        <time>2019-05-05T20:01:20Z</time>
      </trkpt>
      <trkpt lat="51.231852951855" lon="4.459817631223">
        <ele>0</ele>
        <time>2019-05-05T20:02:13Z</time>
      </trkpt>
      <trkpt lat="51.231958312338" lon="4.46051358038">
        <ele>1.6</ele>
        <time>2019-05-05T20:02:54Z</time>
      </trkpt>
      <trkpt lat="51.23198999592" lon="4.460658000517">
        <ele>0</ele>
        <time>2019-05-05T20:03:08Z</time>
      </trkpt>
      <trkpt lat="51.232091752186" lon="4.461361996298">
        <ele>2.2</ele>
        <time>2019-05-05T20:03:44Z</time>
      </trkpt>
      <trkpt lat="51.232130979478" lon="4.461435505561">
        <ele>2.4</ele>
        <time>2019-05-05T20:03:51Z</time>
      </trkpt>
      <trkpt lat="51.232177666661" lon="4.461798944745">
        <ele>3</ele>
        <time>2019-05-05T20:04:27Z</time>
      </trkpt>
      <trkpt lat="51.23231689002" lon="4.462389868695">
        <ele>1.2</ele>
        <time>2019-05-05T20:05:00Z</time>
      </trkpt>
      <trkpt lat="51.23234706486" lon="4.462628669026">
        <ele>0.6</ele>
        <time>2019-05-05T20:05:13Z</time>
      </trkpt>
      <trkpt lat="51.232345472299" lon="4.462804772745">
        <ele>3.4</ele>
        <time>2019-05-05T20:05:38Z</time>
      </trkpt>
      <trkpt lat="51.232431135317" lon="4.463346327304">
        <ele>4</ele>
        <time>2019-05-05T20:06:11Z</time>
      </trkpt>
      <trkpt lat="51.232419400657" lon="4.463420255662">
        <ele>5.8</ele>
        <time>2019-05-05T20:06:27Z</time>
      </trkpt>
      <trkpt lat="51.232518307077" lon="4.4638981916">
        <ele>5</ele>
        <time>2019-05-05T20:06:53Z</time>
      </trkpt>
      <trkpt lat="51.232464579098" lon="4.46406834417">
        <ele>6.2</ele>
        <time>2019-05-05T20:07:13Z</time>
      </trkpt>
      <trkpt lat="51.232409845291" lon="4.464249728486">
        <ele>4.2</ele>
        <time>2019-05-05T20:07:24Z</time>
      </trkpt>
      <trkpt lat="51.232295348537" lon="4.464233048505">
        <ele>2</ele>
        <time>2019-05-05T20:07:36Z</time>
      </trkpt>
      <trkpt lat="51.232228293337" lon="4.464092735499">
        <ele>4.4</ele>
        <time>2019-05-05T20:08:00Z</time>
      </trkpt>
      <trkpt lat="51.232135589523" lon="4.464001624246">
        <ele>4.4</ele>
        <time>2019-05-05T20:08:12Z</time>
      </trkpt>
      <trkpt lat="51.232042298976" lon="4.463896934315">
        <ele>1.6</ele>
        <time>2019-05-05T20:08:22Z</time>
      </trkpt>
      <trkpt lat="51.231925622928" lon="4.463790316547">
        <ele>0</ele>
        <time>2019-05-05T20:08:33Z</time>
      </trkpt>
      <trkpt lat="51.23176703738" lon="4.463610860068">
        <ele>0</ele>
        <time>2019-05-05T20:08:52Z</time>
      </trkpt>
      <trkpt lat="51.2317234515" lon="4.463602561987">
        <ele>0</ele>
        <time>2019-05-05T20:08:56Z</time>
      </trkpt>
      <trkpt lat="51.231711381564" lon="4.463558137917">
        <ele>0</ele>
        <time>2019-05-05T20:08:58Z</time>
      </trkpt>
      <trkpt lat="51.231528656144" lon="4.463353451919">
        <ele>0</ele>
        <time>2019-05-05T20:10:07Z</time>
      </trkpt>
      <trkpt lat="51.231498146028" lon="4.46330726765">
        <ele>0</ele>
        <time>2019-05-05T20:10:11Z</time>
      </trkpt>
      <trkpt lat="51.231222130061" lon="4.463165529721">
        <ele>0</ele>
        <time>2019-05-05T20:11:09Z</time>
      </trkpt>
      <trkpt lat="51.231127582229" lon="4.463237027328">
        <ele>0</ele>
        <time>2019-05-05T20:11:28Z</time>
      </trkpt>
      <trkpt lat="51.231068238377" lon="4.463296035904">
        <ele>0</ele>
        <time>2019-05-05T20:11:35Z</time>
      </trkpt>
      <trkpt lat="51.230623913858" lon="4.463413885418">
        <ele>0</ele>
        <time>2019-05-05T20:12:17Z</time>
      </trkpt>
      <trkpt lat="51.230561384884" lon="4.463400893473">
        <ele>6.6</ele>
        <time>2019-05-05T20:13:02Z</time>
      </trkpt>
      <trkpt lat="51.23039408216" lon="4.463499129341">
        <ele>8</ele>
        <time>2019-05-05T20:13:27Z</time>
      </trkpt>
      <trkpt lat="51.230411600331" lon="4.463549169284">
        <ele>7.8</ele>
        <time>2019-05-05T20:13:30Z</time>
      </trkpt>
      <trkpt lat="51.230333900118" lon="4.463916296504">
        <ele>0</ele>
        <time>2019-05-05T20:14:43Z</time>
      </trkpt>
      <trkpt lat="51.230113456148" lon="4.464108744928">
        <ele>0</ele>
        <time>2019-05-05T20:15:55Z</time>
      </trkpt>
      <trkpt lat="51.2300722172" lon="4.464134142085">
        <ele>0</ele>
        <time>2019-05-05T20:16:03Z</time>
      </trkpt>
      <trkpt lat="51.230024188913" lon="4.464203544217">
        <ele>0</ele>
        <time>2019-05-05T20:16:48Z</time>
      </trkpt>
      <trkpt lat="51.229929641081" lon="4.464262636612">
        <ele>0</ele>
        <time>2019-05-05T20:17:31Z</time>
      </trkpt>
      <trkpt lat="51.229871135419" lon="4.464270431779">
        <ele>0</ele>
        <time>2019-05-05T20:17:37Z</time>
      </trkpt>
      <trkpt lat="51.229614481641" lon="4.464182002734">
        <ele>16.8</ele>
        <time>2019-05-05T20:18:03Z</time>
      </trkpt>
      <trkpt lat="51.229294460699" lon="4.464235311618">
        <ele>31</ele>
        <time>2019-05-05T20:18:36Z</time>
      </trkpt>
      <trkpt lat="51.229151968399" lon="4.46431225746">
        <ele>21</ele>
        <time>2019-05-05T20:18:58Z</time>
      </trkpt>
      <trkpt lat="51.22877386089" lon="4.46445474976">
        <ele>0.6</ele>
        <time>2019-05-05T20:20:02Z</time>
      </trkpt>
      <trkpt lat="51.228803113721" lon="4.464633703325">
        <ele>0</ele>
        <time>2019-05-05T20:20:59Z</time>
      </trkpt>
      <trkpt lat="51.228745530068" lon="4.464843418463">
        <ele>0</ele>
        <time>2019-05-05T20:21:18Z</time>
      </trkpt>
      <trkpt lat="51.228722898938" lon="4.465476084275">
        <ele>0</ele>
        <time>2019-05-05T20:22:14Z</time>
      </trkpt>
      <trkpt lat="51.228655759919" lon="4.465697617892">
        <ele>0</ele>
        <time>2019-05-05T20:22:35Z</time>
      </trkpt>
      <trkpt lat="51.228322998489" lon="4.466111180838">
        <ele>0</ele>
        <time>2019-05-05T20:23:16Z</time>
      </trkpt>
      <trkpt lat="51.227982274254" lon="4.466568413483">
        <ele>0</ele>
        <time>2019-05-05T20:23:55Z</time>
      </trkpt>
      <trkpt lat="51.227950590672" lon="4.466643934402">
        <ele>0</ele>
        <time>2019-05-05T20:24:00Z</time>
      </trkpt>
      <trkpt lat="51.227917565986" lon="4.466683664608">
        <ele>0</ele>
        <time>2019-05-05T20:24:05Z</time>
      </trkpt>
      <trkpt lat="51.227838943764" lon="4.466604623291">
        <ele>0</ele>
        <time>2019-05-05T20:24:12Z</time>
      </trkpt>
      <trkpt lat="51.227823101973" lon="4.466498843713">
        <ele>0</ele>
        <time>2019-05-05T20:24:39Z</time>
      </trkpt>
      <trkpt lat="51.227840787782" lon="4.466457772403">
        <ele>0</ele>
        <time>2019-05-05T20:24:43Z</time>
      </trkpt>
      <trkpt lat="51.227877751961" lon="4.466317459397">
        <ele>0</ele>
        <time>2019-05-05T20:24:55Z</time>
      </trkpt>
      <trkpt lat="51.227910189914" lon="4.466227605429">
        <ele>1.2</ele>
        <time>2019-05-05T20:25:10Z</time>
      </trkpt>
      <trkpt lat="51.227908178258" lon="4.466143032058">
        <ele>2</ele>
        <time>2019-05-05T20:25:16Z</time>
      </trkpt>
      <trkpt lat="51.227928294818" lon="4.465670292898">
        <ele>0</ele>
        <time>2019-05-05T20:26:14Z</time>
      </trkpt>
      <trkpt lat="51.22791303976" lon="4.465564345682">
        <ele>0</ele>
        <time>2019-05-05T20:26:30Z</time>
      </trkpt>
      <trkpt lat="51.227918152719" lon="4.465443059589">
        <ele>0</ele>
        <time>2019-05-05T20:26:54Z</time>
      </trkpt>
      <trkpt lat="51.22791387795" lon="4.465354546725">
        <ele>0</ele>
        <time>2019-05-05T20:27:04Z</time>
      </trkpt>
      <trkpt lat="51.227865933482" lon="4.464691873711">
        <ele>0</ele>
        <time>2019-05-05T20:27:41Z</time>
      </trkpt>
      <trkpt lat="51.227920751108" lon="4.464651305315">
        <ele>0</ele>
        <time>2019-05-05T20:27:54Z</time>
      </trkpt>
      <trkpt lat="51.227850929881" lon="4.464272527254">
        <ele>0.2</ele>
        <time>2019-05-05T20:28:25Z</time>
      </trkpt>
      <trkpt lat="51.227851181338" lon="4.463721920243">
        <ele>0.4</ele>
        <time>2019-05-05T20:28:57Z</time>
      </trkpt>
      <trkpt lat="51.227877751961" lon="4.463579930857">
        <ele>2.4</ele>
        <time>2019-05-05T20:29:10Z</time>
      </trkpt>
      <trkpt lat="51.227930474112" lon="4.463492088545">
        <ele>4.8</ele>
        <time>2019-05-05T20:29:22Z</time>
      </trkpt>
      <trkpt lat="51.227763171388" lon="4.462913905083">
        <ele>0</ele>
        <time>2019-05-05T20:30:05Z</time>
      </trkpt>
      <trkpt lat="51.227698714577" lon="4.462698993167">
        <ele>0</ele>
        <time>2019-05-05T20:30:25Z</time>
      </trkpt>
      <trkpt lat="51.227550522585" lon="4.462213597338">
        <ele>1.4</ele>
        <time>2019-05-05T20:30:50Z</time>
      </trkpt>
      <trkpt lat="51.227537363002" lon="4.462195743891">
        <ele>2.4</ele>
        <time>2019-05-05T20:30:52Z</time>
      </trkpt>
      <trkpt lat="51.227578434312" lon="4.462161545739">
        <ele>8.4</ele>
        <time>2019-05-05T20:31:44Z</time>
      </trkpt>
      <trkpt lat="51.227392356132" lon="4.461525610986">
        <ele>0</ele>
        <time>2019-05-05T20:32:15Z</time>
      </trkpt>
      <trkpt lat="51.227350446632" lon="4.4612914207">
        <ele>0</ele>
        <time>2019-05-05T20:32:26Z</time>
      </trkpt>
      <trkpt lat="51.227322954" lon="4.461298880591">
        <ele>0</ele>
        <time>2019-05-05T20:32:30Z</time>
      </trkpt>
      <trkpt lat="51.227312392806" lon="4.461273651072">
        <ele>0</ele>
        <time>2019-05-05T20:32:41Z</time>
      </trkpt>
      <trkpt lat="51.22735480522" lon="4.461211708831">
        <ele>0</ele>
        <time>2019-05-05T20:32:49Z</time>
      </trkpt>
      <trkpt lat="51.227375340875" lon="4.460925634584">
        <ele>0.6</ele>
        <time>2019-05-05T20:33:03Z</time>
      </trkpt>
      <trkpt lat="51.227389925381" lon="4.460826644345">
        <ele>3.2</ele>
        <time>2019-05-05T20:33:11Z</time>
      </trkpt>
      <trkpt lat="51.227360588731" lon="4.460170425394">
        <ele>10.8</ele>
        <time>2019-05-05T20:34:14Z</time>
      </trkpt>
      <trkpt lat="51.227168559402" lon="4.459518984126">
        <ele>5.8</ele>
        <time>2019-05-05T20:34:47Z</time>
      </trkpt>
      <trkpt lat="51.227152969068" lon="4.459454527315">
        <ele>6.6</ele>
        <time>2019-05-05T20:34:50Z</time>
      </trkpt>
      <trkpt lat="51.227129751205" lon="4.459227880739">
        <ele>4.4</ele>
        <time>2019-05-05T20:35:02Z</time>
      </trkpt>
      <trkpt lat="51.22716118333" lon="4.459187144705">
        <ele>3.8</ele>
        <time>2019-05-05T20:35:07Z</time>
      </trkpt>
      <trkpt lat="51.227242320122" lon="4.459091591045">
        <ele>4.2</ele>
        <time>2019-05-05T20:35:20Z</time>
      </trkpt>
      <trkpt lat="51.227522778496" lon="4.458912721299">
        <ele>11.4</ele>
        <time>2019-05-05T20:35:53Z</time>
      </trkpt>
      <trkpt lat="51.227604082926" lon="4.458887324142">
        <ele>17.6</ele>
        <time>2019-05-05T20:36:02Z</time>
      </trkpt>
      <trkpt lat="51.227740037344" lon="4.458812389956">
        <ele>19.4</ele>
        <time>2019-05-05T20:36:18Z</time>
      </trkpt>
      <trkpt lat="51.228162652742" lon="4.458553975979">
        <ele>10.2</ele>
        <time>2019-05-05T20:36:52Z</time>
      </trkpt>
      <trkpt lat="51.228250243597" lon="4.458479963802">
        <ele>7.6</ele>
        <time>2019-05-05T20:37:03Z</time>
      </trkpt>
      <trkpt lat="51.228616448808" lon="4.458158182661">
        <ele>12.4</ele>
        <time>2019-05-05T20:37:45Z</time>
      </trkpt>
      <trkpt lat="51.228627345278" lon="4.458065646485">
        <ele>12</ele>
        <time>2019-05-05T20:37:53Z</time>
      </trkpt>
      <trkpt lat="51.22855257873" lon="4.457556865155">
        <ele>8.6</ele>
        <time>2019-05-05T20:38:22Z</time>
      </trkpt>
      <trkpt lat="51.228541766079" lon="4.457360225781">
        <ele>6.8</ele>
        <time>2019-05-05T20:38:33Z</time>
      </trkpt>
      <trkpt lat="51.22857269529" lon="4.457246567217">
        <ele>3.8</ele>
        <time>2019-05-05T20:38:48Z</time>
      </trkpt>
      <trkpt lat="51.228563726657" lon="4.457203484251">
        <ele>2.6</ele>
        <time>2019-05-05T20:38:51Z</time>
      </trkpt>
      <trkpt lat="51.228605636157" lon="4.456953871269">
        <ele>1.6</ele>
        <time>2019-05-05T20:39:02Z</time>
      </trkpt>
      <trkpt lat="51.228769083207" lon="4.456932078329">
        <ele>9.2</ele>
        <time>2019-05-05T20:39:27Z</time>
      </trkpt>
      <trkpt lat="51.229206031654" lon="4.456857479419">
        <ele>14</ele>
        <time>2019-05-05T20:40:05Z</time>
      </trkpt>
      <trkpt lat="51.229463775079" lon="4.456837362859">
        <ele>20.4</ele>
        <time>2019-05-05T20:40:40Z</time>
      </trkpt>
      <trkpt lat="51.229899214784" lon="4.456668299936">
        <ele>20.8</ele>
        <time>2019-05-05T20:41:24Z</time>
      </trkpt>
      <trkpt lat="51.230067439517" lon="4.456561430711">
        <ele>17</ele>
        <time>2019-05-05T20:41:44Z</time>
      </trkpt>
      <trkpt lat="51.230518553375" lon="4.456478198444">
        <ele>16</ele>
        <time>2019-05-05T20:42:27Z</time>
      </trkpt>
      <trkpt lat="51.230946952284" lon="4.456340064732">
        <ele>20.4</ele>
        <time>2019-05-05T20:43:07Z</time>
      </trkpt>
      <trkpt lat="51.231037728261" lon="4.456118028201">
        <ele>7</ele>
        <time>2019-05-05T20:43:37Z</time>
      </trkpt>
      <trkpt lat="51.231085421272" lon="4.456166978497">
        <ele>6.8</ele>
        <time>2019-05-05T20:43:42Z</time>
      </trkpt>
      <trkpt lat="51.231103777633" lon="4.45623545862">
        <ele>3</ele>
        <time>2019-05-05T20:44:28Z</time>
      </trkpt>
      <trkpt lat="51.231156332146" lon="4.45631843943">
        <ele>1</ele>
        <time>2019-05-05T20:44:45Z</time>
      </trkpt>
      <trkpt lat="51.231236379291" lon="4.456441904817">
        <ele>1.2</ele>
        <time>2019-05-05T20:44:59Z</time>
      </trkpt>
      <trkpt lat="51.231276193316" lon="4.456567633317">
        <ele>0.8</ele>
        <time>2019-05-05T20:45:18Z</time>
      </trkpt>
      <trkpt lat="51.23127334347" lon="4.456874494676">
        <ele>2.4</ele>
        <time>2019-05-05T20:45:36Z</time>
      </trkpt>
      <trkpt lat="51.231297818618" lon="4.456958648952">
        <ele>5.2</ele>
        <time>2019-05-05T20:45:43Z</time>
      </trkpt>
      <trkpt lat="51.231266135036" lon="4.457298786454">
        <ele>8</ele>
        <time>2019-05-05T20:46:05Z</time>
      </trkpt>
      <trkpt lat="51.231187093719" lon="4.457509339782">
        <ele>4.2</ele>
        <time>2019-05-05T20:46:18Z</time>
      </trkpt>
      <trkpt lat="51.23109145624" lon="4.457603217062">
        <ele>1.8</ele>
        <time>2019-05-05T20:46:33Z</time>
      </trkpt>
      <trkpt lat="51.230648724282" lon="4.457704638052">
        <ele>0</ele>
        <time>2019-05-05T20:47:10Z</time>
      </trkpt>
      <trkpt lat="51.230350077185" lon="4.457678905619">
        <ele>0.2</ele>
        <time>2019-05-05T20:47:34Z</time>
      </trkpt>
      <trkpt lat="51.229906087942" lon="4.457804969395">
        <ele>0</ele>
        <time>2019-05-05T20:48:10Z</time>
      </trkpt>
      <trkpt lat="51.229832243403" lon="4.457924914384">
        <ele>0.2</ele>
        <time>2019-05-05T20:48:31Z</time>
      </trkpt>
      <trkpt lat="51.229718920115" lon="4.457950982093">
        <ele>0</ele>
        <time>2019-05-05T20:49:02Z</time>
      </trkpt>
    </trkseg>
  </trk>
</gpx>